sensor_id;sensor_type;location;lat;lon;timestamp;temperature;humidity
6256;DHT22;3161;48.794;9.784;2023-11-19T00:01:01;8.20;99.90
6256;DHT22;3161;48.794;9.784;2023-11-19T00:03:30;8.20;99.90
6256;DHT22;3161;48.794;9.784;2023-11-19T00:06:00;8.20;99.90
6256;DHT22;3161;48.794;9.784;2023-11-19T00:08:27;8.20;99.90
6256;DHT22;3161;48.794;9.784;2023-11-19T00:10:55;8.30;99.90
6256;DHT22;3161;48.794;9.784;2023-11-19T00:13:22;8.30;99.90
6256;DHT22;3161;48.794;9.784;2023-11-19T00:15:50;8.30;99.90
6256;DHT22;3161;48.794;9.784;2023-11-19T00:18:17;8.30;99.90
6256;DHT22;3161;48.794;9.784;2023-11-19T00:20:45;8.30;99.90
6256;DHT22;3161;48.794;9.784;2023-11-19T00:23:13;8.40;99.90
6256;DHT22;3161;48.794;9.784;2023-11-19T00:25:40;8.40;99.90
6256;DHT22;3161;48.794;9.784;2023-11-19T00:28:07;8.40;99.90
6256;DHT22;3161;48.794;9.784;2023-11-19T00:30:35;8.40;99.90
6256;DHT22;3161;48.794;9.784;2023-11-19T00:33:03;8.40;99.90
6256;DHT22;3161;48.794;9.784;2023-11-19T00:35:31;8.40;99.90
6256;DHT22;3161;48.794;9.784;2023-11-19T00:37:59;8.40;99.90
6256;DHT22;3161;48.794;9.784;2023-11-19T00:40:27;8.50;99.90
6256;DHT22;3161;48.794;9.784;2023-11-19T00:42:55;8.50;99.90
6256;DHT22;3161;48.794;9.784;2023-11-19T00:45:22;8.50;99.90
6256;DHT22;3161;48.794;9.784;2023-11-19T00:47:50;8.50;99.90
6256;DHT22;3161;48.794;9.784;2023-11-19T00:50:18;8.50;99.90
6256;DHT22;3161;48.794;9.784;2023-11-19T00:52:45;8.60;99.90
6256;DHT22;3161;48.794;9.784;2023-11-19T00:55:13;8.60;99.90
6256;DHT22;3161;48.794;9.784;2023-11-19T00:57:41;8.60;99.90
6256;DHT22;3161;48.794;9.784;2023-11-19T01:00:09;8.60;99.90
6256;DHT22;3161;48.794;9.784;2023-11-19T01:02:42;8.60;99.90
6256;DHT22;3161;48.794;9.784;2023-11-19T01:05:09;8.60;99.90
6256;DHT22;3161;48.794;9.784;2023-11-19T01:07:39;8.60;99.90
6256;DHT22;3161;48.794;9.784;2023-11-19T01:10:07;8.70;99.90
6256;DHT22;3161;48.794;9.784;2023-11-19T01:12:35;8.70;99.90
6256;DHT22;3161;48.794;9.784;2023-11-19T01:15:02;8.70;99.90
6256;DHT22;3161;48.794;9.784;2023-11-19T01:17:30;8.70;99.90
6256;DHT22;3161;48.794;9.784;2023-11-19T01:19:58;8.70;99.90
6256;DHT22;3161;48.794;9.784;2023-11-19T01:22:25;8.80;99.90
6256;DHT22;3161;48.794;9.784;2023-11-19T01:24:53;8.80;99.90
6256;DHT22;3161;48.794;9.784;2023-11-19T01:27:20;8.80;99.90
6256;DHT22;3161;48.794;9.784;2023-11-19T01:29:48;8.80;99.90
6256;DHT22;3161;48.794;9.784;2023-11-19T01:32:15;8.80;99.90
6256;DHT22;3161;48.794;9.784;2023-11-19T01:34:43;8.80;99.90
6256;DHT22;3161;48.794;9.784;2023-11-19T01:37:10;8.80;99.90
6256;DHT22;3161;48.794;9.784;2023-11-19T01:39:40;8.90;99.90
6256;DHT22;3161;48.794;9.784;2023-11-19T01:42:09;8.90;99.90
6256;DHT22;3161;48.794;9.784;2023-11-19T01:44:38;8.90;99.90
6256;DHT22;3161;48.794;9.784;2023-11-19T01:47:06;8.90;99.90
6256;DHT22;3161;48.794;9.784;2023-11-19T01:49:35;8.90;99.90
6256;DHT22;3161;48.794;9.784;2023-11-19T01:52:02;8.90;99.90
6256;DHT22;3161;48.794;9.784;2023-11-19T01:54:30;9.00;99.90
6256;DHT22;3161;48.794;9.784;2023-11-19T01:56:59;9.00;99.90
6256;DHT22;3161;48.794;9.784;2023-11-19T01:59:27;9.00;99.90
6256;DHT22;3161;48.794;9.784;2023-11-19T02:01:55;9.00;99.90
6256;DHT22;3161;48.794;9.784;2023-11-19T02:04:23;9.00;99.90
6256;DHT22;3161;48.794;9.784;2023-11-19T02:06:52;9.00;99.90
6256;DHT22;3161;48.794;9.784;2023-11-19T02:09:21;9.00;99.90
6256;DHT22;3161;48.794;9.784;2023-11-19T02:11:49;9.10;99.90
6256;DHT22;3161;48.794;9.784;2023-11-19T02:14:18;9.10;99.90
6256;DHT22;3161;48.794;9.784;2023-11-19T02:16:46;9.10;99.90
6256;DHT22;3161;48.794;9.784;2023-11-19T02:19:14;9.10;99.90
6256;DHT22;3161;48.794;9.784;2023-11-19T02:21:41;9.20;99.90
6256;DHT22;3161;48.794;9.784;2023-11-19T02:24:10;9.20;99.90
6256;DHT22;3161;48.794;9.784;2023-11-19T02:26:58;9.20;99.90
6256;DHT22;3161;48.794;9.784;2023-11-19T02:29:24;9.20;99.90
6256;DHT22;3161;48.794;9.784;2023-11-19T02:31:52;9.20;99.90
6256;DHT22;3161;48.794;9.784;2023-11-19T02:34:21;9.20;99.90
6256;DHT22;3161;48.794;9.784;2023-11-19T02:36:48;9.30;99.90
6256;DHT22;3161;48.794;9.784;2023-11-19T02:39:16;9.30;99.90
6256;DHT22;3161;48.794;9.784;2023-11-19T02:41:45;9.30;99.90
6256;DHT22;3161;48.794;9.784;2023-11-19T02:44:13;9.30;99.90
6256;DHT22;3161;48.794;9.784;2023-11-19T02:46:41;9.30;99.90
6256;DHT22;3161;48.794;9.784;2023-11-19T02:49:08;9.30;99.90
6256;DHT22;3161;48.794;9.784;2023-11-19T02:51:36;9.30;99.90
6256;DHT22;3161;48.794;9.784;2023-11-19T02:54:05;9.30;99.90
6256;DHT22;3161;48.794;9.784;2023-11-19T02:56:32;9.60;99.90
6256;DHT22;3161;48.794;9.784;2023-11-19T02:59:02;9.40;99.90
6256;DHT22;3161;48.794;9.784;2023-11-19T03:01:34;9.40;99.90
6256;DHT22;3161;48.794;9.784;2023-11-19T03:04:03;9.40;99.90
6256;DHT22;3161;48.794;9.784;2023-11-19T03:06:31;9.40;99.90
6256;DHT22;3161;48.794;9.784;2023-11-19T03:08:58;9.40;99.90
6256;DHT22;3161;48.794;9.784;2023-11-19T03:11:27;9.40;99.90
6256;DHT22;3161;48.794;9.784;2023-11-19T03:13:55;9.40;99.90
6256;DHT22;3161;48.794;9.784;2023-11-19T03:16:22;9.40;99.90
6256;DHT22;3161;48.794;9.784;2023-11-19T03:18:50;9.40;99.90
6256;DHT22;3161;48.794;9.784;2023-11-19T03:21:17;9.40;99.90
6256;DHT22;3161;48.794;9.784;2023-11-19T03:23:45;9.40;99.90
6256;DHT22;3161;48.794;9.784;2023-11-19T03:26:13;9.40;99.90
6256;DHT22;3161;48.794;9.784;2023-11-19T03:28:40;9.40;99.90
6256;DHT22;3161;48.794;9.784;2023-11-19T03:31:08;9.40;99.90
6256;DHT22;3161;48.794;9.784;2023-11-19T03:33:35;9.50;99.90
6256;DHT22;3161;48.794;9.784;2023-11-19T03:36:04;9.50;99.90
6256;DHT22;3161;48.794;9.784;2023-11-19T03:38:32;9.40;99.90
6256;DHT22;3161;48.794;9.784;2023-11-19T03:40:59;9.50;99.90
6256;DHT22;3161;48.794;9.784;2023-11-19T03:43:27;9.50;99.90
6256;DHT22;3161;48.794;9.784;2023-11-19T03:45:54;9.50;99.90
6256;DHT22;3161;48.794;9.784;2023-11-19T03:48:22;9.60;99.90
6256;DHT22;3161;48.794;9.784;2023-11-19T03:50:49;9.60;99.90
6256;DHT22;3161;48.794;9.784;2023-11-19T03:53:17;9.60;99.90
6256;DHT22;3161;48.794;9.784;2023-11-19T03:55:45;9.60;99.90
6256;DHT22;3161;48.794;9.784;2023-11-19T03:58:13;9.60;99.90
6256;DHT22;3161;48.794;9.784;2023-11-19T04:00:40;9.60;99.90
6256;DHT22;3161;48.794;9.784;2023-11-19T04:03:08;9.60;99.90
6256;DHT22;3161;48.794;9.784;2023-11-19T04:05:35;9.60;99.90
6256;DHT22;3161;48.794;9.784;2023-11-19T04:08:03;9.60;99.90
6256;DHT22;3161;48.794;9.784;2023-11-19T04:10:32;9.60;99.90
6256;DHT22;3161;48.794;9.784;2023-11-19T04:12:59;9.60;99.90
6256;DHT22;3161;48.794;9.784;2023-11-19T04:15:27;9.60;99.90
6256;DHT22;3161;48.794;9.784;2023-11-19T04:17:55;9.70;99.90
6256;DHT22;3161;48.794;9.784;2023-11-19T04:20:23;9.70;99.90
6256;DHT22;3161;48.794;9.784;2023-11-19T04:22:51;9.70;99.90
6256;DHT22;3161;48.794;9.784;2023-11-19T04:25:18;9.70;99.90
6256;DHT22;3161;48.794;9.784;2023-11-19T04:27:46;9.70;99.90
6256;DHT22;3161;48.794;9.784;2023-11-19T04:30:14;9.70;99.90
6256;DHT22;3161;48.794;9.784;2023-11-19T04:32:42;9.80;99.90
6256;DHT22;3161;48.794;9.784;2023-11-19T04:35:10;9.80;99.90
6256;DHT22;3161;48.794;9.784;2023-11-19T04:37:38;9.80;99.90
6256;DHT22;3161;48.794;9.784;2023-11-19T04:40:06;9.80;99.90
6256;DHT22;3161;48.794;9.784;2023-11-19T04:42:34;9.90;99.90
6256;DHT22;3161;48.794;9.784;2023-11-19T04:45:01;9.90;99.90
6256;DHT22;3161;48.794;9.784;2023-11-19T04:47:30;9.90;99.90
6256;DHT22;3161;48.794;9.784;2023-11-19T04:49:58;9.90;99.90
6256;DHT22;3161;48.794;9.784;2023-11-19T04:52:26;9.90;99.90
6256;DHT22;3161;48.794;9.784;2023-11-19T04:54:53;10.00;99.90
6256;DHT22;3161;48.794;9.784;2023-11-19T04:57:20;10.00;99.90
6256;DHT22;3161;48.794;9.784;2023-11-19T04:59:48;10.00;99.90
6256;DHT22;3161;48.794;9.784;2023-11-19T05:02:16;10.00;99.90
6256;DHT22;3161;48.794;9.784;2023-11-19T05:04:43;10.10;99.90
6256;DHT22;3161;48.794;9.784;2023-11-19T05:07:12;10.10;99.90
6256;DHT22;3161;48.794;9.784;2023-11-19T05:09:40;10.20;99.90
6256;DHT22;3161;48.794;9.784;2023-11-19T05:12:09;10.20;99.90
6256;DHT22;3161;48.794;9.784;2023-11-19T05:14:38;10.20;99.90
6256;DHT22;3161;48.794;9.784;2023-11-19T05:17:06;10.20;99.90
6256;DHT22;3161;48.794;9.784;2023-11-19T05:19:34;10.30;99.90
6256;DHT22;3161;48.794;9.784;2023-11-19T05:22:01;10.30;99.90
6256;DHT22;3161;48.794;9.784;2023-11-19T05:24:31;10.30;99.90
6256;DHT22;3161;48.794;9.784;2023-11-19T05:26:59;10.40;99.90
6256;DHT22;3161;48.794;9.784;2023-11-19T05:29:26;10.40;99.90
6256;DHT22;3161;48.794;9.784;2023-11-19T05:31:54;10.40;99.90
6256;DHT22;3161;48.794;9.784;2023-11-19T05:34:21;10.50;99.90
6256;DHT22;3161;48.794;9.784;2023-11-19T05:36:49;10.50;99.90
6256;DHT22;3161;48.794;9.784;2023-11-19T05:39:17;10.50;99.90
6256;DHT22;3161;48.794;9.784;2023-11-19T05:41:48;10.50;99.90
6256;DHT22;3161;48.794;9.784;2023-11-19T05:44:16;10.50;99.90
6256;DHT22;3161;48.794;9.784;2023-11-19T05:46:44;10.60;99.90
6256;DHT22;3161;48.794;9.784;2023-11-19T05:49:12;10.60;99.90
6256;DHT22;3161;48.794;9.784;2023-11-19T05:51:40;10.60;99.90
6256;DHT22;3161;48.794;9.784;2023-11-19T05:54:09;10.60;99.90
6256;DHT22;3161;48.794;9.784;2023-11-19T05:56:37;10.70;99.90
6256;DHT22;3161;48.794;9.784;2023-11-19T05:59:05;10.70;99.90
6256;DHT22;3161;48.794;9.784;2023-11-19T06:01:37;10.70;99.90
6256;DHT22;3161;48.794;9.784;2023-11-19T06:04:06;10.70;99.90
6256;DHT22;3161;48.794;9.784;2023-11-19T06:06:33;10.80;99.90
6256;DHT22;3161;48.794;9.784;2023-11-19T06:09:01;10.80;99.90
6256;DHT22;3161;48.794;9.784;2023-11-19T06:11:29;10.80;99.90
6256;DHT22;3161;48.794;9.784;2023-11-19T06:13:56;10.80;99.90
6256;DHT22;3161;48.794;9.784;2023-11-19T06:16:24;10.90;99.90
6256;DHT22;3161;48.794;9.784;2023-11-19T06:18:51;10.90;99.90
6256;DHT22;3161;48.794;9.784;2023-11-19T06:21:20;10.90;99.90
6256;DHT22;3161;48.794;9.784;2023-11-19T06:23:47;10.90;99.90
6256;DHT22;3161;48.794;9.784;2023-11-19T06:26:15;10.90;99.90
6256;DHT22;3161;48.794;9.784;2023-11-19T06:28:43;10.90;99.90
6256;DHT22;3161;48.794;9.784;2023-11-19T06:31:11;10.90;99.90
6256;DHT22;3161;48.794;9.784;2023-11-19T06:33:40;11.00;99.90
6256;DHT22;3161;48.794;9.784;2023-11-19T06:36:08;11.00;99.90
6256;DHT22;3161;48.794;9.784;2023-11-19T06:38:36;11.00;99.90
6256;DHT22;3161;48.794;9.784;2023-11-19T06:41:07;11.00;99.90
6256;DHT22;3161;48.794;9.784;2023-11-19T06:43:36;11.00;99.90
6256;DHT22;3161;48.794;9.784;2023-11-19T06:46:04;11.00;99.90
6256;DHT22;3161;48.794;9.784;2023-11-19T06:48:33;11.10;99.90
6256;DHT22;3161;48.794;9.784;2023-11-19T06:51:00;11.10;99.90
6256;DHT22;3161;48.794;9.784;2023-11-19T06:53:31;11.10;99.90
6256;DHT22;3161;48.794;9.784;2023-11-19T06:55:58;11.10;99.90
6256;DHT22;3161;48.794;9.784;2023-11-19T06:58:26;11.10;99.90
6256;DHT22;3161;48.794;9.784;2023-11-19T07:00:54;11.10;99.90
6256;DHT22;3161;48.794;9.784;2023-11-19T07:03:21;11.10;99.90
6256;DHT22;3161;48.794;9.784;2023-11-19T07:05:49;11.20;99.90
6256;DHT22;3161;48.794;9.784;2023-11-19T07:08:16;11.20;99.90
6256;DHT22;3161;48.794;9.784;2023-11-19T07:10:43;11.20;99.90
6256;DHT22;3161;48.794;9.784;2023-11-19T07:13:13;11.20;99.90
6256;DHT22;3161;48.794;9.784;2023-11-19T07:15:40;11.30;99.90
6256;DHT22;3161;48.794;9.784;2023-11-19T07:18:08;11.30;99.90
6256;DHT22;3161;48.794;9.784;2023-11-19T07:20:35;11.30;99.90
6256;DHT22;3161;48.794;9.784;2023-11-19T07:23:04;11.40;99.90
6256;DHT22;3161;48.794;9.784;2023-11-19T07:25:32;11.40;99.90
6256;DHT22;3161;48.794;9.784;2023-11-19T07:28:01;11.50;99.90
6256;DHT22;3161;48.794;9.784;2023-11-19T07:30:30;11.50;99.90
6256;DHT22;3161;48.794;9.784;2023-11-19T07:32:58;11.50;99.90
6256;DHT22;3161;48.794;9.784;2023-11-19T07:35:25;11.60;99.90
6256;DHT22;3161;48.794;9.784;2023-11-19T07:37:53;11.50;99.90
6256;DHT22;3161;48.794;9.784;2023-11-19T07:40:20;11.60;99.90
6256;DHT22;3161;48.794;9.784;2023-11-19T07:42:48;11.60;99.90
6256;DHT22;3161;48.794;9.784;2023-11-19T07:45:16;11.60;99.90
6256;DHT22;3161;48.794;9.784;2023-11-19T07:47:44;11.60;99.90
6256;DHT22;3161;48.794;9.784;2023-11-19T07:50:12;11.70;99.90
6256;DHT22;3161;48.794;9.784;2023-11-19T07:52:43;11.70;99.90
6256;DHT22;3161;48.794;9.784;2023-11-19T07:55:11;11.60;99.90
6256;DHT22;3161;48.794;9.784;2023-11-19T07:57:38;11.70;99.90
6256;DHT22;3161;48.794;9.784;2023-11-19T08:00:06;11.60;99.90
6256;DHT22;3161;48.794;9.784;2023-11-19T08:02:36;11.70;99.90
6256;DHT22;3161;48.794;9.784;2023-11-19T08:05:04;11.70;99.90
6256;DHT22;3161;48.794;9.784;2023-11-19T08:07:31;11.70;99.90
6256;DHT22;3161;48.794;9.784;2023-11-19T08:09:59;11.70;99.90
6256;DHT22;3161;48.794;9.784;2023-11-19T08:12:26;11.70;99.90
6256;DHT22;3161;48.794;9.784;2023-11-19T08:14:54;11.70;99.90
6256;DHT22;3161;48.794;9.784;2023-11-19T08:17:21;11.70;99.90
6256;DHT22;3161;48.794;9.784;2023-11-19T08:19:50;11.80;99.90
6256;DHT22;3161;48.794;9.784;2023-11-19T08:22:17;11.90;99.90
6256;DHT22;3161;48.794;9.784;2023-11-19T08:24:45;11.90;99.90
6256;DHT22;3161;48.794;9.784;2023-11-19T08:27:12;11.90;99.90
6256;DHT22;3161;48.794;9.784;2023-11-19T08:29:40;11.90;99.90
6256;DHT22;3161;48.794;9.784;2023-11-19T08:32:07;12.00;99.90
6256;DHT22;3161;48.794;9.784;2023-11-19T08:34:35;12.00;99.90
6256;DHT22;3161;48.794;9.784;2023-11-19T08:37:02;12.00;99.90
6256;DHT22;3161;48.794;9.784;2023-11-19T08:39:31;12.10;99.90
6256;DHT22;3161;48.794;9.784;2023-11-19T08:42:01;12.20;99.90
6256;DHT22;3161;48.794;9.784;2023-11-19T08:44:28;12.20;99.90
6256;DHT22;3161;48.794;9.784;2023-11-19T08:46:56;12.30;99.90
6256;DHT22;3161;48.794;9.784;2023-11-19T08:49:23;12.40;99.90
6256;DHT22;3161;48.794;9.784;2023-11-19T08:51:51;12.50;99.90
6256;DHT22;3161;48.794;9.784;2023-11-19T08:54:18;12.50;99.90
6256;DHT22;3161;48.794;9.784;2023-11-19T08:56:47;12.60;99.90
6256;DHT22;3161;48.794;9.784;2023-11-19T08:59:15;12.70;99.90
6256;DHT22;3161;48.794;9.784;2023-11-19T09:01:42;12.80;99.90
6256;DHT22;3161;48.794;9.784;2023-11-19T09:04:10;12.90;99.90
6256;DHT22;3161;48.794;9.784;2023-11-19T09:06:38;13.00;99.90
6256;DHT22;3161;48.794;9.784;2023-11-19T09:09:06;13.10;99.90
6256;DHT22;3161;48.794;9.784;2023-11-19T09:11:34;13.20;99.90
6256;DHT22;3161;48.794;9.784;2023-11-19T09:14:03;13.20;99.90
6256;DHT22;3161;48.794;9.784;2023-11-19T09:16:31;13.20;99.90
6256;DHT22;3161;48.794;9.784;2023-11-19T09:18:58;13.20;99.90
6256;DHT22;3161;48.794;9.784;2023-11-19T09:21:28;13.20;99.90
6256;DHT22;3161;48.794;9.784;2023-11-19T09:24:00;13.20;99.90
6256;DHT22;3161;48.794;9.784;2023-11-19T09:26:28;13.20;99.90
6256;DHT22;3161;48.794;9.784;2023-11-19T09:28:55;13.20;99.90
6256;DHT22;3161;48.794;9.784;2023-11-19T09:31:23;13.20;99.90
6256;DHT22;3161;48.794;9.784;2023-11-19T09:33:50;13.20;99.90
6256;DHT22;3161;48.794;9.784;2023-11-19T09:36:18;13.30;99.90
6256;DHT22;3161;48.794;9.784;2023-11-19T09:38:46;13.30;99.90
6256;DHT22;3161;48.794;9.784;2023-11-19T09:41:14;13.50;99.90
6256;DHT22;3161;48.794;9.784;2023-11-19T09:43:42;13.60;99.90
6256;DHT22;3161;48.794;9.784;2023-11-19T09:46:10;13.70;99.90
6256;DHT22;3161;48.794;9.784;2023-11-19T09:48:39;13.80;99.90
6256;DHT22;3161;48.794;9.784;2023-11-19T09:51:10;13.80;99.90
6256;DHT22;3161;48.794;9.784;2023-11-19T09:53:39;13.80;99.90
6256;DHT22;3161;48.794;9.784;2023-11-19T09:56:07;13.80;99.90
6256;DHT22;3161;48.794;9.784;2023-11-19T09:58:35;13.70;99.90
6256;DHT22;3161;48.794;9.784;2023-11-19T10:01:03;13.70;99.90
6256;DHT22;3161;48.794;9.784;2023-11-19T10:03:33;13.70;99.90
6256;DHT22;3161;48.794;9.784;2023-11-19T10:06:08;13.70;99.90
6256;DHT22;3161;48.794;9.784;2023-11-19T10:08:39;13.60;99.90
6256;DHT22;3161;48.794;9.784;2023-11-19T10:11:07;13.60;99.90
6256;DHT22;3161;48.794;9.784;2023-11-19T10:13:37;13.60;99.90
6256;DHT22;3161;48.794;9.784;2023-11-19T10:16:07;13.50;99.90
6256;DHT22;3161;48.794;9.784;2023-11-19T10:18:35;13.50;99.90
6256;DHT22;3161;48.794;9.784;2023-11-19T10:21:05;13.50;99.90
6256;DHT22;3161;48.794;9.784;2023-11-19T10:23:56;13.60;99.90
6256;DHT22;3161;48.794;9.784;2023-11-19T10:26:04;13.90;99.90
6256;DHT22;3161;48.794;9.784;2023-11-19T10:28:42;14.10;99.90
6256;DHT22;3161;48.794;9.784;2023-11-19T10:31:12;14.30;99.90
6256;DHT22;3161;48.794;9.784;2023-11-19T10:33:39;14.40;99.90
6256;DHT22;3161;48.794;9.784;2023-11-19T10:36:07;14.40;99.90
6256;DHT22;3161;48.794;9.784;2023-11-19T10:38:36;14.60;99.90
6256;DHT22;3161;48.794;9.784;2023-11-19T10:41:04;14.80;99.90
6256;DHT22;3161;48.794;9.784;2023-11-19T10:43:41;15.10;99.90
6256;DHT22;3161;48.794;9.784;2023-11-19T10:46:11;15.40;99.90
6256;DHT22;3161;48.794;9.784;2023-11-19T10:48:40;15.50;99.90
6256;DHT22;3161;48.794;9.784;2023-11-19T10:51:08;15.70;99.90
6256;DHT22;3161;48.794;9.784;2023-11-19T10:53:38;15.80;99.90
6256;DHT22;3161;48.794;9.784;2023-11-19T10:56:10;15.90;99.90
6256;DHT22;3161;48.794;9.784;2023-11-19T10:58:37;15.90;99.90
6256;DHT22;3161;48.794;9.784;2023-11-19T11:01:14;15.90;99.90
6256;DHT22;3161;48.794;9.784;2023-11-19T11:03:43;15.70;99.90
6256;DHT22;3161;48.794;9.784;2023-11-19T11:06:13;15.60;99.90
6256;DHT22;3161;48.794;9.784;2023-11-19T11:08:41;15.50;99.90
6256;DHT22;3161;48.794;9.784;2023-11-19T11:11:11;15.50;99.90
6256;DHT22;3161;48.794;9.784;2023-11-19T11:13:42;15.70;99.90
6256;DHT22;3161;48.794;9.784;2023-11-19T11:16:09;15.90;99.90
6256;DHT22;3161;48.794;9.784;2023-11-19T11:18:37;16.30;99.90
6256;DHT22;3161;48.794;9.784;2023-11-19T11:21:10;16.60;99.90
6256;DHT22;3161;48.794;9.784;2023-11-19T11:29:47;17.60;99.90
6256;DHT22;3161;48.794;9.784;2023-11-19T11:32:33;17.80;99.90
6256;DHT22;3161;48.794;9.784;2023-11-19T11:37:25;18.20;99.90
6256;DHT22;3161;48.794;9.784;2023-11-19T11:39:53;18.20;99.90
6256;DHT22;3161;48.794;9.784;2023-11-19T11:45:15;18.20;99.90
6256;DHT22;3161;48.794;9.784;2023-11-19T11:57:59;18.10;99.90
6256;DHT22;3161;48.794;9.784;2023-11-19T12:03:01;18.60;99.90
6256;DHT22;3161;48.794;9.784;2023-11-19T12:05:30;18.70;99.90
6256;DHT22;3161;48.794;9.784;2023-11-19T12:08:04;18.60;99.90
6256;DHT22;3161;48.794;9.784;2023-11-19T12:10:43;18.40;99.90
6256;DHT22;3161;48.794;9.784;2023-11-19T12:13:06;18.60;99.90
6256;DHT22;3161;48.794;9.784;2023-11-19T12:16:06;18.90;99.90
6256;DHT22;3161;48.794;9.784;2023-11-19T12:18:30;19.00;99.90
6256;DHT22;3161;48.794;9.784;2023-11-19T12:20:59;18.60;99.90
6256;DHT22;3161;48.794;9.784;2023-11-19T12:23:29;18.10;99.90
6256;DHT22;3161;48.794;9.784;2023-11-19T12:25:58;17.70;99.90
6256;DHT22;3161;48.794;9.784;2023-11-19T12:28:26;17.40;99.90
6256;DHT22;3161;48.794;9.784;2023-11-19T12:30:54;17.10;99.90
6256;DHT22;3161;48.794;9.784;2023-11-19T12:33:23;15.70;99.90
6256;DHT22;3161;48.794;9.784;2023-11-19T12:35:50;18.40;99.90
6256;DHT22;3161;48.794;9.784;2023-11-19T12:38:23;20.50;99.90
6256;DHT22;3161;48.794;9.784;2023-11-19T12:41:04;21.60;99.90
6256;DHT22;3161;48.794;9.784;2023-11-19T12:43:32;22.90;99.90
6256;DHT22;3161;48.794;9.784;2023-11-19T12:46:01;23.90;99.90
6256;DHT22;3161;48.794;9.784;2023-11-19T12:48:28;24.40;99.90
6256;DHT22;3161;48.794;9.784;2023-11-19T12:50:57;24.60;99.90
6256;DHT22;3161;48.794;9.784;2023-11-19T12:53:27;24.80;99.90
6256;DHT22;3161;48.794;9.784;2023-11-19T12:55:55;24.80;99.90
6256;DHT22;3161;48.794;9.784;2023-11-19T12:58:36;24.80;99.90
6256;DHT22;3161;48.794;9.784;2023-11-19T13:01:08;24.80;99.90
6256;DHT22;3161;48.794;9.784;2023-11-19T13:03:37;25.50;99.90
6256;DHT22;3161;48.794;9.784;2023-11-19T13:06:07;26.50;99.90
6256;DHT22;3161;48.794;9.784;2023-11-19T13:08:40;27.30;98.00
6256;DHT22;3161;48.794;9.784;2023-11-19T13:11:06;27.70;95.90
6256;DHT22;3161;48.794;9.784;2023-11-19T13:13:56;27.70;92.10
6256;DHT22;3161;48.794;9.784;2023-11-19T13:16:24;27.70;92.20
6256;DHT22;3161;48.794;9.784;2023-11-19T13:18:52;27.90;92.00
6256;DHT22;3161;48.794;9.784;2023-11-19T13:21:20;27.50;90.30
6256;DHT22;3161;48.794;9.784;2023-11-19T13:23:47;26.80;89.20
6256;DHT22;3161;48.794;9.784;2023-11-19T13:26:15;26.30;90.40
6256;DHT22;3161;48.794;9.784;2023-11-19T13:28:42;26.10;88.50
6256;DHT22;3161;48.794;9.784;2023-11-19T13:31:10;25.60;90.40
6256;DHT22;3161;48.794;9.784;2023-11-19T13:33:37;24.90;90.90
6256;DHT22;3161;48.794;9.784;2023-11-19T13:36:05;24.00;91.60
6256;DHT22;3161;48.794;9.784;2023-11-19T13:38:34;22.60;92.80
6256;DHT22;3161;48.794;9.784;2023-11-19T13:41:03;21.40;94.30
6256;DHT22;3161;48.794;9.784;2023-11-19T13:43:35;20.30;96.20
6256;DHT22;3161;48.794;9.784;2023-11-19T13:46:03;19.50;97.80
6256;DHT22;3161;48.794;9.784;2023-11-19T13:48:31;18.90;99.50
6256;DHT22;3161;48.794;9.784;2023-11-19T13:50:59;18.40;99.90
6256;DHT22;3161;48.794;9.784;2023-11-19T13:53:26;18.00;99.90
6256;DHT22;3161;48.794;9.784;2023-11-19T13:55:54;17.70;99.90
6256;DHT22;3161;48.794;9.784;2023-11-19T13:58:22;17.40;99.90
6256;DHT22;3161;48.794;9.784;2023-11-19T14:00:49;17.20;99.90
6256;DHT22;3161;48.794;9.784;2023-11-19T14:03:17;17.00;99.90
6256;DHT22;3161;48.794;9.784;2023-11-19T14:05:44;16.70;99.90
6256;DHT22;3161;48.794;9.784;2023-11-19T14:08:13;16.50;99.90
6256;DHT22;3161;48.794;9.784;2023-11-19T14:10:40;16.30;99.90
6256;DHT22;3161;48.794;9.784;2023-11-19T14:13:08;16.20;99.90
6256;DHT22;3161;48.794;9.784;2023-11-19T14:15:36;16.10;99.90
6256;DHT22;3161;48.794;9.784;2023-11-19T14:18:03;16.00;99.90
6256;DHT22;3161;48.794;9.784;2023-11-19T14:20:31;15.90;99.90
6256;DHT22;3161;48.794;9.784;2023-11-19T14:22:59;15.80;99.90
6256;DHT22;3161;48.794;9.784;2023-11-19T14:25:27;15.90;99.90
6256;DHT22;3161;48.794;9.784;2023-11-19T14:27:54;15.90;99.90
6256;DHT22;3161;48.794;9.784;2023-11-19T14:30:22;15.90;99.90
6256;DHT22;3161;48.794;9.784;2023-11-19T14:32:49;16.00;99.90
6256;DHT22;3161;48.794;9.784;2023-11-19T14:35:17;16.00;99.90
6256;DHT22;3161;48.794;9.784;2023-11-19T14:37:47;15.90;99.90
6256;DHT22;3161;48.794;9.784;2023-11-19T14:40:15;15.90;99.90
6256;DHT22;3161;48.794;9.784;2023-11-19T14:42:43;15.70;99.90
6256;DHT22;3161;48.794;9.784;2023-11-19T14:45:10;15.60;99.90
6256;DHT22;3161;48.794;9.784;2023-11-19T14:47:38;15.50;99.90
6256;DHT22;3161;48.794;9.784;2023-11-19T14:50:07;15.40;99.90
6256;DHT22;3161;48.794;9.784;2023-11-19T14:52:35;15.30;99.90
6256;DHT22;3161;48.794;9.784;2023-11-19T14:55:04;15.20;99.90
6256;DHT22;3161;48.794;9.784;2023-11-19T14:57:32;15.10;99.90
6256;DHT22;3161;48.794;9.784;2023-11-19T14:59:59;15.00;99.90
6256;DHT22;3161;48.794;9.784;2023-11-19T15:02:27;14.90;99.90
6256;DHT22;3161;48.794;9.784;2023-11-19T15:04:55;14.80;99.90
6256;DHT22;3161;48.794;9.784;2023-11-19T15:07:22;14.80;99.90
6256;DHT22;3161;48.794;9.784;2023-11-19T15:09:50;14.70;99.90
6256;DHT22;3161;48.794;9.784;2023-11-19T15:12:17;14.70;99.90
6256;DHT22;3161;48.794;9.784;2023-11-19T15:14:45;14.50;99.90
6256;DHT22;3161;48.794;9.784;2023-11-19T15:17:12;14.50;99.90
6256;DHT22;3161;48.794;9.784;2023-11-19T15:19:40;14.40;99.90
6256;DHT22;3161;48.794;9.784;2023-11-19T15:22:08;14.40;99.90
6256;DHT22;3161;48.794;9.784;2023-11-19T15:24:37;14.30;99.90
6256;DHT22;3161;48.794;9.784;2023-11-19T15:27:06;14.20;99.90
6256;DHT22;3161;48.794;9.784;2023-11-19T15:29:35;14.10;99.90
6256;DHT22;3161;48.794;9.784;2023-11-19T15:32:04;14.00;99.90
6256;DHT22;3161;48.794;9.784;2023-11-19T15:34:33;13.90;99.90
6256;DHT22;3161;48.794;9.784;2023-11-19T15:37:03;13.90;99.90
6256;DHT22;3161;48.794;9.784;2023-11-19T15:39:31;13.80;99.90
6256;DHT22;3161;48.794;9.784;2023-11-19T15:41:59;13.70;99.90
6256;DHT22;3161;48.794;9.784;2023-11-19T15:44:26;13.70;99.90
6256;DHT22;3161;48.794;9.784;2023-11-19T15:46:55;13.60;99.90
6256;DHT22;3161;48.794;9.784;2023-11-19T15:49:23;13.50;99.90
6256;DHT22;3161;48.794;9.784;2023-11-19T15:51:52;13.50;99.90
6256;DHT22;3161;48.794;9.784;2023-11-19T15:54:20;13.40;99.90
6256;DHT22;3161;48.794;9.784;2023-11-19T15:56:47;13.40;99.90
6256;DHT22;3161;48.794;9.784;2023-11-19T15:59:15;13.40;99.90
6256;DHT22;3161;48.794;9.784;2023-11-19T16:01:43;13.30;99.90
6256;DHT22;3161;48.794;9.784;2023-11-19T16:04:10;13.30;99.90
6256;DHT22;3161;48.794;9.784;2023-11-19T16:06:38;13.40;99.90
6256;DHT22;3161;48.794;9.784;2023-11-19T16:09:05;13.30;99.90
6256;DHT22;3161;48.794;9.784;2023-11-19T16:11:33;13.30;99.90
6256;DHT22;3161;48.794;9.784;2023-11-19T16:14:02;13.30;99.90
6256;DHT22;3161;48.794;9.784;2023-11-19T16:16:30;13.30;99.90
6256;DHT22;3161;48.794;9.784;2023-11-19T16:18:57;13.30;99.90
6256;DHT22;3161;48.794;9.784;2023-11-19T16:21:25;13.30;99.90
6256;DHT22;3161;48.794;9.784;2023-11-19T16:23:53;13.30;99.90
6256;DHT22;3161;48.794;9.784;2023-11-19T16:26:20;13.30;99.90
6256;DHT22;3161;48.794;9.784;2023-11-19T16:28:48;13.30;99.90
6256;DHT22;3161;48.794;9.784;2023-11-19T16:31:15;13.20;99.90
6256;DHT22;3161;48.794;9.784;2023-11-19T16:33:44;13.20;99.90
6256;DHT22;3161;48.794;9.784;2023-11-19T16:36:15;13.20;99.90
6256;DHT22;3161;48.794;9.784;2023-11-19T16:38:42;13.10;99.90